sensor_id;sensor_type;location;lat;lon;timestamp;P1;durP1;ratioP1;P2;durP2;ratioP2
16973;SDS011;8603;46.944;7.412;2024-03-02T00:03:47;5.23;;;3.80;;
16973;SDS011;8603;46.944;7.412;2024-03-02T00:06:15;5.20;;;3.83;;
16973;SDS011;8603;46.944;7.412;2024-03-02T00:15:41;4.40;;;3.57;;
16973;SDS011;8603;46.944;7.412;2024-03-02T00:18:32;6.07;;;4.07;;
16973;SDS011;8603;46.944;7.412;2024-03-02T00:21:13;6.13;;;3.83;;
16973;SDS011;8603;46.944;7.412;2024-03-02T00:23:41;4.83;;;3.63;;
16973;SDS011;8603;46.944;7.412;2024-03-02T00:26:08;6.50;;;4.80;;
16973;SDS011;8603;46.944;7.412;2024-03-02T00:28:52;6.93;;;4.77;;
16973;SDS011;8603;46.944;7.412;2024-03-02T00:31:29;9.13;;;5.67;;
16973;SDS011;8603;46.944;7.412;2024-03-02T00:33:55;8.03;;;5.73;;
16973;SDS011;8603;46.944;7.412;2024-03-02T00:36:29;7.67;;;5.80;;
16973;SDS011;8603;46.944;7.412;2024-03-02T00:38:58;6.87;;;5.17;;
16973;SDS011;8603;46.944;7.412;2024-03-02T00:41:36;6.63;;;4.87;;
16973;SDS011;8603;46.944;7.412;2024-03-02T00:44:02;6.33;;;4.87;;
16973;SDS011;8603;46.944;7.412;2024-03-02T00:46:34;7.93;;;5.90;;
16973;SDS011;8603;46.944;7.412;2024-03-02T00:49:23;7.57;;;5.63;;
16973;SDS011;8603;46.944;7.412;2024-03-02T00:51:56;8.67;;;5.53;;
16973;SDS011;8603;46.944;7.412;2024-03-02T00:54:27;7.27;;;5.30;;
16973;SDS011;8603;46.944;7.412;2024-03-02T00:56:54;8.23;;;5.27;;
16973;SDS011;8603;46.944;7.412;2024-03-02T00:59:21;10.10;;;5.77;;
16973;SDS011;8603;46.944;7.412;2024-03-02T01:01:49;6.90;;;5.40;;
16973;SDS011;8603;46.944;7.412;2024-03-02T01:04:25;8.13;;;5.57;;
16973;SDS011;8603;46.944;7.412;2024-03-02T01:06:50;7.77;;;5.73;;
16973;SDS011;8603;46.944;7.412;2024-03-02T01:09:24;7.27;;;5.53;;
16973;SDS011;8603;46.944;7.412;2024-03-02T01:12:15;8.57;;;5.80;;
16973;SDS011;8603;46.944;7.412;2024-03-02T01:17:44;7.70;;;5.03;;
16973;SDS011;8603;46.944;7.412;2024-03-02T01:20:12;6.43;;;5.03;;
16973;SDS011;8603;46.944;7.412;2024-03-02T01:22:41;6.57;;;5.10;;
16973;SDS011;8603;46.944;7.412;2024-03-02T01:25:12;7.37;;;5.63;;
16973;SDS011;8603;46.944;7.412;2024-03-02T01:28:02;7.40;;;5.60;;
16973;SDS011;8603;46.944;7.412;2024-03-02T01:30:28;5.93;;;4.60;;
16973;SDS011;8603;46.944;7.412;2024-03-02T01:33:05;7.57;;;5.53;;
16973;SDS011;8603;46.944;7.412;2024-03-02T01:35:56;5.93;;;4.07;;
16973;SDS011;8603;46.944;7.412;2024-03-02T01:38:55;8.37;;;6.13;;
16973;SDS011;8603;46.944;7.412;2024-03-02T01:41:54;8.00;;;6.17;;
16973;SDS011;8603;46.944;7.412;2024-03-02T01:44:28;10.57;;;6.90;;
16973;SDS011;8603;46.944;7.412;2024-03-02T01:47:23;8.13;;;5.97;;
16973;SDS011;8603;46.944;7.412;2024-03-02T01:50:13;9.00;;;6.93;;
16973;SDS011;8603;46.944;7.412;2024-03-02T01:52:41;6.90;;;5.67;;
16973;SDS011;8603;46.944;7.412;2024-03-02T01:55:29;9.00;;;6.00;;
16973;SDS011;8603;46.944;7.412;2024-03-02T01:58:04;8.77;;;6.10;;
16973;SDS011;8603;46.944;7.412;2024-03-02T02:00:35;7.47;;;6.10;;
16973;SDS011;8603;46.944;7.412;2024-03-02T02:03:06;8.17;;;6.30;;
16973;SDS011;8603;46.944;7.412;2024-03-02T02:05:34;8.03;;;5.90;;
16973;SDS011;8603;46.944;7.412;2024-03-02T02:08:00;8.97;;;6.33;;
16973;SDS011;8603;46.944;7.412;2024-03-02T02:10:26;7.80;;;5.80;;
16973;SDS011;8603;46.944;7.412;2024-03-02T02:12:52;10.67;;;7.57;;
16973;SDS011;8603;46.944;7.412;2024-03-02T02:18:09;12.23;;;7.93;;
16973;SDS011;8603;46.944;7.412;2024-03-02T02:20:40;13.63;;;10.80;;
16973;SDS011;8603;46.944;7.412;2024-03-02T02:23:06;13.57;;;8.53;;
16973;SDS011;8603;46.944;7.412;2024-03-02T02:25:34;11.93;;;9.63;;
16973;SDS011;8603;46.944;7.412;2024-03-02T02:28:00;11.50;;;9.33;;
16973;SDS011;8603;46.944;7.412;2024-03-02T02:30:31;12.13;;;8.63;;
16973;SDS011;8603;46.944;7.412;2024-03-02T02:33:00;9.90;;;7.43;;
16973;SDS011;8603;46.944;7.412;2024-03-02T02:35:29;8.93;;;6.77;;
16973;SDS011;8603;46.944;7.412;2024-03-02T02:38:06;8.93;;;5.93;;
16973;SDS011;8603;46.944;7.412;2024-03-02T02:40:34;8.07;;;5.83;;
16973;SDS011;8603;46.944;7.412;2024-03-02T02:42:59;8.17;;;5.30;;
16973;SDS011;8603;46.944;7.412;2024-03-02T02:45:28;6.30;;;4.47;;
16973;SDS011;8603;46.944;7.412;2024-03-02T02:47:53;4.97;;;4.30;;
16973;SDS011;8603;46.944;7.412;2024-03-02T02:50:24;5.13;;;4.23;;
16973;SDS011;8603;46.944;7.412;2024-03-02T02:52:53;6.07;;;4.20;;
16973;SDS011;8603;46.944;7.412;2024-03-02T02:55:19;8.73;;;4.20;;
16973;SDS011;8603;46.944;7.412;2024-03-02T02:57:47;6.60;;;4.43;;
16973;SDS011;8603;46.944;7.412;2024-03-02T03:00:15;5.60;;;4.40;;
16973;SDS011;8603;46.944;7.412;2024-03-02T03:02:44;4.37;;;3.47;;
16973;SDS011;8603;46.944;7.412;2024-03-02T03:05:12;6.03;;;3.90;;
16973;SDS011;8603;46.944;7.412;2024-03-02T03:07:41;6.60;;;4.37;;
16973;SDS011;8603;46.944;7.412;2024-03-02T03:10:10;6.17;;;4.67;;
16973;SDS011;8603;46.944;7.412;2024-03-02T03:12:36;9.50;;;5.13;;
16973;SDS011;8603;46.944;7.412;2024-03-02T03:15:02;6.40;;;4.93;;
16973;SDS011;8603;46.944;7.412;2024-03-02T03:17:29;9.00;;;4.47;;
16973;SDS011;8603;46.944;7.412;2024-03-02T03:19:55;6.50;;;5.10;;
16973;SDS011;8603;46.944;7.412;2024-03-02T03:22:21;7.57;;;5.40;;
16973;SDS011;8603;46.944;7.412;2024-03-02T03:24:46;8.57;;;5.33;;
16973;SDS011;8603;46.944;7.412;2024-03-02T03:27:12;7.47;;;5.00;;
16973;SDS011;8603;46.944;7.412;2024-03-02T03:29:40;11.07;;;5.30;;
16973;SDS011;8603;46.944;7.412;2024-03-02T03:32:29;6.37;;;4.80;;
16973;SDS011;8603;46.944;7.412;2024-03-02T03:34:57;7.03;;;5.23;;
16973;SDS011;8603;46.944;7.412;2024-03-02T03:37:25;8.03;;;5.53;;
16973;SDS011;8603;46.944;7.412;2024-03-02T03:39:57;8.13;;;5.83;;
16973;SDS011;8603;46.944;7.412;2024-03-02T03:42:24;9.43;;;6.53;;
16973;SDS011;8603;46.944;7.412;2024-03-02T03:44:49;9.80;;;6.77;;
16973;SDS011;8603;46.944;7.412;2024-03-02T03:47:15;7.53;;;5.90;;
16973;SDS011;8603;46.944;7.412;2024-03-02T03:49:41;9.37;;;6.40;;
16973;SDS011;8603;46.944;7.412;2024-03-02T03:52:06;10.27;;;6.43;;
16973;SDS011;8603;46.944;7.412;2024-03-02T03:54:32;9.57;;;5.93;;
16973;SDS011;8603;46.944;7.412;2024-03-02T03:56:58;11.27;;;6.90;;
16973;SDS011;8603;46.944;7.412;2024-03-02T03:59:23;13.23;;;7.53;;
16973;SDS011;8603;46.944;7.412;2024-03-02T04:01:49;8.93;;;6.37;;
16973;SDS011;8603;46.944;7.412;2024-03-02T04:04:15;9.67;;;6.57;;
16973;SDS011;8603;46.944;7.412;2024-03-02T04:06:40;11.40;;;6.50;;
16973;SDS011;8603;46.944;7.412;2024-03-02T04:09:06;8.17;;;5.83;;
16973;SDS011;8603;46.944;7.412;2024-03-02T04:11:32;9.27;;;6.43;;
16973;SDS011;8603;46.944;7.412;2024-03-02T04:14:01;11.00;;;7.10;;
16973;SDS011;8603;46.944;7.412;2024-03-02T04:16:26;10.20;;;7.00;;
16973;SDS011;8603;46.944;7.412;2024-03-02T04:18:55;8.40;;;6.37;;
16973;SDS011;8603;46.944;7.412;2024-03-02T04:21:22;10.13;;;6.90;;
16973;SDS011;8603;46.944;7.412;2024-03-02T04:23:49;9.03;;;6.43;;
16973;SDS011;8603;46.944;7.412;2024-03-02T04:26:16;11.97;;;7.33;;
16973;SDS011;8603;46.944;7.412;2024-03-02T04:28:47;11.67;;;7.27;;
16973;SDS011;8603;46.944;7.412;2024-03-02T04:31:12;8.87;;;6.53;;
16973;SDS011;8603;46.944;7.412;2024-03-02T04:33:40;8.67;;;6.43;;
16973;SDS011;8603;46.944;7.412;2024-03-02T04:36:22;9.53;;;6.67;;
16973;SDS011;8603;46.944;7.412;2024-03-02T04:38:50;14.37;;;8.00;;
16973;SDS011;8603;46.944;7.412;2024-03-02T04:41:26;11.27;;;7.90;;
16973;SDS011;8603;46.944;7.412;2024-03-02T04:43:52;10.30;;;7.30;;
16973;SDS011;8603;46.944;7.412;2024-03-02T04:46:18;10.53;;;6.93;;
16973;SDS011;8603;46.944;7.412;2024-03-02T04:48:44;9.00;;;7.03;;
16973;SDS011;8603;46.944;7.412;2024-03-02T04:51:09;8.90;;;6.63;;
16973;SDS011;8603;46.944;7.412;2024-03-02T04:53:36;9.90;;;6.53;;
16973;SDS011;8603;46.944;7.412;2024-03-02T04:56:04;10.33;;;7.10;;
16973;SDS011;8603;46.944;7.412;2024-03-02T04:58:48;9.80;;;6.83;;
16973;SDS011;8603;46.944;7.412;2024-03-02T05:01:17;19.53;;;7.60;;
16973;SDS011;8603;46.944;7.412;2024-03-02T05:03:43;12.97;;;7.70;;
16973;SDS011;8603;46.944;7.412;2024-03-02T05:06:10;10.67;;;7.07;;
16973;SDS011;8603;46.944;7.412;2024-03-02T05:08:36;11.20;;;7.40;;
16973;SDS011;8603;46.944;7.412;2024-03-02T05:11:02;11.40;;;7.77;;
16973;SDS011;8603;46.944;7.412;2024-03-02T05:13:46;10.03;;;6.77;;
16973;SDS011;8603;46.944;7.412;2024-03-02T05:16:12;12.13;;;7.27;;
16973;SDS011;8603;46.944;7.412;2024-03-02T05:18:38;10.47;;;7.60;;
16973;SDS011;8603;46.944;7.412;2024-03-02T05:21:03;9.23;;;6.70;;
16973;SDS011;8603;46.944;7.412;2024-03-02T05:23:29;10.63;;;7.37;;
16973;SDS011;8603;46.944;7.412;2024-03-02T05:25:55;8.50;;;6.43;;
16973;SDS011;8603;46.944;7.412;2024-03-02T05:28:21;9.63;;;6.70;;
16973;SDS011;8603;46.944;7.412;2024-03-02T05:30:47;9.47;;;6.80;;
16973;SDS011;8603;46.944;7.412;2024-03-02T05:33:12;9.87;;;6.43;;
16973;SDS011;8603;46.944;7.412;2024-03-02T05:35:38;8.50;;;6.67;;
16973;SDS011;8603;46.944;7.412;2024-03-02T05:38:04;13.03;;;7.03;;
16973;SDS011;8603;46.944;7.412;2024-03-02T05:40:30;8.67;;;6.33;;
16973;SDS011;8603;46.944;7.412;2024-03-02T05:42:57;11.23;;;6.90;;
16973;SDS011;8603;46.944;7.412;2024-03-02T05:45:25;10.63;;;6.70;;
16973;SDS011;8603;46.944;7.412;2024-03-02T05:47:51;12.50;;;7.13;;
16973;SDS011;8603;46.944;7.412;2024-03-02T05:50:17;11.43;;;7.47;;
16973;SDS011;8603;46.944;7.412;2024-03-02T05:52:45;10.47;;;7.30;;
16973;SDS011;8603;46.944;7.412;2024-03-02T05:55:10;9.27;;;7.20;;
16973;SDS011;8603;46.944;7.412;2024-03-02T05:57:40;11.17;;;7.37;;
16973;SDS011;8603;46.944;7.412;2024-03-02T06:00:09;10.87;;;7.37;;
16973;SDS011;8603;46.944;7.412;2024-03-02T06:02:38;10.50;;;7.53;;
16973;SDS011;8603;46.944;7.412;2024-03-02T06:05:27;10.73;;;6.90;;
16973;SDS011;8603;46.944;7.412;2024-03-02T06:07:52;8.83;;;6.20;;
16973;SDS011;8603;46.944;7.412;2024-03-02T06:10:18;8.27;;;6.00;;
16973;SDS011;8603;46.944;7.412;2024-03-02T06:12:44;7.63;;;6.03;;
16973;SDS011;8603;46.944;7.412;2024-03-02T06:15:10;8.13;;;6.03;;
16973;SDS011;8603;46.944;7.412;2024-03-02T06:17:41;8.77;;;5.60;;
16973;SDS011;8603;46.944;7.412;2024-03-02T06:20:37;8.07;;;5.57;;
16973;SDS011;8603;46.944;7.412;2024-03-02T06:24:02;7.83;;;6.23;;
16973;SDS011;8603;46.944;7.412;2024-03-02T06:26:49;9.33;;;6.37;;
16973;SDS011;8603;46.944;7.412;2024-03-02T06:29:46;9.17;;;7.43;;
16973;SDS011;8603;46.944;7.412;2024-03-02T08:44:23;2.13;;;1.92;;
16973;SDS011;8603;46.944;7.412;2024-03-02T08:46:56;2.15;;;1.50;;
16973;SDS011;8603;46.944;7.412;2024-03-02T09:27:40;1.20;;;1.10;;
16973;SDS011;8603;46.944;7.412;2024-03-02T09:44:09;1.45;;;1.33;;
16973;SDS011;8603;46.944;7.412;2024-03-02T09:46:48;1.50;;;1.13;;
16973;SDS011;8603;46.944;7.412;2024-03-02T09:49:17;1.20;;;1.10;;
16973;SDS011;8603;46.944;7.412;2024-03-02T09:51:56;2.03;;;1.30;;
16973;SDS011;8603;46.944;7.412;2024-03-02T09:54:27;1.33;;;1.23;;
16973;SDS011;8603;46.944;7.412;2024-03-02T09:56:54;1.00;;;1.00;;
16973;SDS011;8603;46.944;7.412;2024-03-02T10:03:09;1.73;;;1.40;;
16973;SDS011;8603;46.944;7.412;2024-03-02T10:05:26;2.23;;;1.40;;
16973;SDS011;8603;46.944;7.412;2024-03-02T10:09:31;1.50;;;1.40;;
16973;SDS011;8603;46.944;7.412;2024-03-02T10:24:56;1.93;;;1.00;;
16973;SDS011;8603;46.944;7.412;2024-03-02T10:27:45;1.23;;;1.00;;
16973;SDS011;8603;46.944;7.412;2024-03-02T10:51:48;2.50;;;1.60;;
16973;SDS011;8603;46.944;7.412;2024-03-02T11:57:09;1.97;;;1.60;;
16973;SDS011;8603;46.944;7.412;2024-03-02T12:03:26;1.60;;;1.50;;
16973;SDS011;8603;46.944;7.412;2024-03-02T12:26:51;1.83;;;1.63;;
16973;SDS011;8603;46.944;7.412;2024-03-02T12:29:38;1.70;;;1.53;;
16973;SDS011;8603;46.944;7.412;2024-03-02T12:32:08;1.60;;;1.50;;
16973;SDS011;8603;46.944;7.412;2024-03-02T12:57:43;1.40;;;1.30;;
16973;SDS011;8603;46.944;7.412;2024-03-02T19:22:39;7.67;;;5.37;;
16973;SDS011;8603;46.944;7.412;2024-03-02T19:25:24;6.13;;;5.00;;
16973;SDS011;8603;46.944;7.412;2024-03-02T19:27:58;7.10;;;5.27;;
